createdAt,value
2023-01-27T00:02:45.139Z,96.64
2023-01-27T00:06:49.645Z,95.32
2023-01-27T00:11:20.094Z,96.91
2023-01-27T00:15:26.034Z,96.12
2023-01-27T00:19:29.964Z,96.92
2023-01-27T00:23:51.225Z,97.08
2023-01-27T00:27:56.173Z,96.08
2023-01-27T00:32:18.733Z,95.18
2023-01-27T00:36:25.119Z,95.97
2023-01-27T00:40:28.891Z,96.26
2023-01-27T00:44:37.945Z,96.08
2023-01-27T00:48:43.231Z,97.31
2023-01-27T00:52:47.515Z,97.19
2023-01-27T00:56:52.022Z,97.76
2023-01-27T01:00:55.475Z,96.92
2023-01-27T01:05:00.335Z,97.21
2023-01-27T01:09:04.109Z,96.97
2023-01-27T01:13:08.262Z,97.18
2023-01-27T01:17:11.562Z,97.40
2023-01-27T01:21:17.158Z,97.19
2023-01-27T01:25:20.628Z,97.49
2023-01-27T01:29:24.071Z,97.77
2023-01-27T01:33:27.448Z,97.42
2023-01-27T01:37:41.331Z,97.82
2023-01-27T01:41:44.782Z,96.71
2023-01-27T01:45:54.025Z,97.29
2023-01-27T01:49:57.375Z,97.20
2023-01-27T01:54:04.269Z,97.66
2023-01-27T01:58:08.624Z,97.46
2023-01-27T02:02:15.410Z,98.05
2023-01-27T02:06:19.127Z,97.33
2023-01-27T02:10:23.900Z,97.36
2023-01-27T02:14:27.476Z,98.27
2023-01-27T02:18:31.362Z,97.31
2023-01-27T02:22:39.822Z,97.54
2023-01-27T02:26:45.851Z,97.44
2023-01-27T02:30:49.274Z,97.16
2023-01-27T02:34:52.813Z,97.82
2023-01-27T02:38:58.148Z,97.33
2023-01-27T02:43:05.193Z,97.37
2023-01-27T02:47:08.605Z,97.02
2023-01-27T02:51:12.521Z,97.75
2023-01-27T02:55:15.873Z,97.98
2023-01-27T02:59:21.081Z,97.95
2023-01-27T03:03:24.416Z,97.94
2023-01-27T03:07:28.307Z,97.74
2023-01-27T03:11:49.078Z,97.67
2023-01-27T03:16:13.428Z,97.70
2023-01-27T03:20:18.173Z,97.84
2023-01-27T03:24:22.036Z,98.15
2023-01-27T03:28:25.557Z,97.15
2023-01-27T03:32:33.593Z,97.47
2023-01-27T03:36:54.140Z,97.20
2023-01-27T03:41:15.100Z,96.53
2023-01-27T03:45:36.007Z,96.06
2023-01-27T03:49:40.639Z,97.07
2023-01-27T03:53:43.666Z,96.82
2023-01-27T03:57:47.288Z,97.94
2023-01-27T04:01:50.637Z,98.18
2023-01-27T04:06:12.570Z,97.41
2023-01-27T04:10:15.677Z,98.05
2023-01-27T04:14:18.948Z,97.78
2023-01-27T04:18:22.156Z,98.12
2023-01-27T04:22:26.814Z,98.10
2023-01-27T04:26:33.469Z,98.22
2023-01-27T04:30:36.954Z,98.14
2023-01-27T04:34:41.183Z,97.78
2023-01-27T04:38:46.238Z,98.00
2023-01-27T04:42:49.340Z,97.64
2023-01-27T04:46:54.240Z,97.55
2023-01-27T04:50:57.352Z,96.58
2023-01-27T04:55:02.152Z,96.01
2023-01-27T04:59:07.524Z,96.55
2023-01-27T05:03:11.555Z,96.99
2023-01-27T05:07:14.807Z,97.91
2023-01-27T05:11:20.233Z,97.80
2023-01-27T05:15:24.611Z,98.30
2023-01-27T05:19:28.102Z,98.04
2023-01-27T05:23:37.329Z,98.41
2023-01-27T05:27:42.119Z,97.91
2023-01-27T05:31:45.512Z,98.18
2023-01-27T05:35:48.787Z,98.32
2023-01-27T05:39:52.160Z,97.74
2023-01-27T05:43:57.851Z,98.27
2023-01-27T05:48:01.077Z,97.87
2023-01-27T05:52:04.407Z,97.60
2023-01-27T05:56:10.718Z,97.62
2023-01-27T06:00:16.947Z,97.80
2023-01-27T06:04:23.116Z,98.11
2023-01-27T06:08:27.487Z,98.63
2023-01-27T06:12:30.784Z,98.46
2023-01-27T06:16:35.671Z,98.35
2023-01-27T06:20:40.030Z,98.63
2023-01-27T06:24:43.242Z,98.64
2023-01-27T06:28:46.636Z,98.34
2023-01-27T06:32:51.342Z,98.57
2023-01-27T06:36:54.516Z,98.76
2023-01-27T06:40:57.583Z,98.53
2023-01-27T06:45:01.571Z,98.63
2023-01-27T06:49:05.870Z,98.27
2023-01-27T06:53:09.238Z,98.59
2023-01-27T06:57:16.664Z,98.06
2023-01-27T07:01:19.604Z,98.05
2023-01-27T07:05:26.390Z,98.55
2023-01-27T07:09:32.144Z,98.39
2023-01-27T07:13:36.894Z,98.35
2023-01-27T07:17:44.047Z,97.87
2023-01-27T07:21:48.881Z,98.27
2023-01-27T07:25:51.928Z,98.86
2023-01-27T07:29:58.418Z,98.27
2023-01-27T07:34:05.176Z,98.42
2023-01-27T07:38:13.679Z,98.80
2023-01-27T07:42:17.572Z,98.56
2023-01-27T07:46:22.647Z,98.27
2023-01-27T07:50:31.470Z,98.12
2023-01-27T07:54:38.018Z,97.95
2023-01-27T07:58:44.788Z,98.16
2023-01-27T08:02:54.634Z,96.96
2023-01-27T08:06:58.048Z,96.84
2023-01-27T08:11:04.471Z,96.52
2023-01-27T08:15:10.168Z,96.84
2023-01-27T08:19:13.683Z,96.96
2023-01-27T08:23:18.996Z,96.95
2023-01-27T08:27:23.595Z,97.28
2023-01-27T08:31:26.606Z,97.58
2023-01-27T08:35:29.512Z,98.33
2023-01-27T08:39:32.546Z,97.99
2023-01-27T08:43:37.197Z,97.94
2023-01-27T08:47:39.993Z,98.18
2023-01-27T08:51:43.398Z,98.35
2023-01-27T08:55:46.531Z,98.28
2023-01-27T08:59:50.746Z,98.37
2023-01-27T09:03:53.644Z,97.60
2023-01-27T09:07:56.428Z,97.81
2023-01-27T09:11:59.641Z,96.42
2023-01-27T09:16:04.487Z,95.13
2023-01-27T09:20:08.445Z,94.68
2023-01-27T09:24:11.370Z,94.98
2023-01-27T09:28:17.867Z,94.71
2023-01-27T09:32:22.099Z,95.03
2023-01-27T09:36:25.038Z,94.18
2023-01-27T09:40:31.884Z,93.18
2023-01-27T09:44:49.948Z,92.39
2023-01-27T09:49:04.918Z,93.65
2023-01-27T09:53:23.466Z,92.42
2023-01-27T09:57:35.593Z,92.37
2023-01-27T10:01:48.201Z,93.19
2023-01-27T10:06:09.474Z,87.09
2023-01-27T10:10:25.701Z,92.33
2023-01-27T10:14:36.878Z,92.69
2023-01-27T10:18:52.083Z,93.08
2023-01-27T10:23:08.215Z,92.39
2023-01-27T10:27:16.776Z,91.93
2023-01-27T10:31:27.312Z,91.57
2023-01-27T10:35:34.493Z,89.95
2023-01-27T10:39:46.992Z,88.67
2023-01-27T10:43:58.834Z,90.83
2023-01-27T10:48:12.320Z,90.78
2023-01-27T10:52:18.719Z,89.82
2023-01-27T10:56:34.037Z,89.83
2023-01-27T11:05:18.903Z,89.45
2023-01-27T11:09:37.388Z,88.86
2023-01-27T11:13:46.653Z,87.14
2023-01-27T11:18:22.632Z,86.82
2023-01-27T11:22:34.333Z,87.42
2023-01-27T11:26:44.869Z,87.82
2023-01-27T11:30:50.754Z,86.76
2023-01-27T11:35:04.151Z,86.70
2023-01-27T11:39:14.756Z,88.58
2023-01-27T11:43:19.908Z,85.71
2023-01-27T11:47:27.573Z,87.33
2023-01-27T11:51:39.664Z,88.04
2023-01-27T11:55:46.270Z,89.35
2023-01-27T11:59:51.092Z,87.78
2023-01-27T12:04:12.659Z,87.57
2023-01-27T12:08:46.074Z,89.40
2023-01-27T12:12:49.937Z,90.25
2023-01-27T12:16:54.048Z,91.14
2023-01-27T12:21:02.420Z,90.19
2023-01-27T12:25:24.660Z,89.57
2023-01-27T12:29:30.691Z,88.84
2023-01-27T12:33:46.194Z,89.29
2023-01-27T12:37:52.076Z,88.55
2023-01-27T12:41:58.752Z,88.17
2023-01-27T12:46:21.757Z,87.91
2023-01-27T12:50:37.583Z,90.14
2023-01-27T12:54:44.035Z,88.10
2023-01-27T12:58:52.267Z,87.61
2023-01-27T13:03:25.748Z,85.19
2023-01-27T13:07:34.806Z,87.18
2023-01-27T13:11:45.982Z,86.28
2023-01-27T13:16:04.309Z,86.98
2023-01-27T13:20:20.518Z,88.71
2023-01-27T13:24:36.790Z,85.08
2023-01-27T13:28:52.665Z,84.57
2023-01-27T13:33:02.437Z,85.67
2023-01-27T13:37:10.121Z,86.02
2023-01-27T13:41:22.523Z,84.97
2023-01-27T13:45:36.947Z,86.97
2023-01-27T13:49:44.884Z,85.74
2023-01-27T13:53:49.845Z,85.76
2023-01-27T13:58:01.270Z,83.87
2023-01-27T14:02:26.826Z,82.42
2023-01-27T14:06:49.485Z,82.34
2023-01-27T14:11:04.867Z,85.98
2023-01-27T14:15:24.472Z,87.43
2023-01-27T14:19:37.553Z,89.01
2023-01-27T14:23:52.663Z,89.68
2023-01-27T14:28:02.929Z,90.57
2023-01-27T14:32:27.381Z,90.97
2023-01-27T14:36:36.635Z,89.88
2023-01-27T14:40:48.495Z,91.14
2023-01-27T14:45:03.409Z,89.79
2023-01-27T14:49:12.547Z,89.47
2023-01-27T14:53:37.550Z,86.66
2023-01-27T14:57:47.802Z,87.97
2023-01-27T15:01:59.040Z,83.70
2023-01-27T15:06:05.071Z,84.19
2023-01-27T15:10:22.026Z,85.76
2023-01-27T15:14:54.601Z,86.73
2023-01-27T15:19:18.720Z,85.72
2023-01-27T15:24:02.730Z,85.11
2023-01-27T15:28:12.714Z,85.98
2023-01-27T15:32:33.004Z,84.99
2023-01-27T15:36:39.113Z,86.47
2023-01-27T15:41:02.174Z,88.51
2023-01-27T15:45:13.716Z,87.28
2023-01-27T15:49:29.712Z,87.00
2023-01-27T15:53:34.847Z,88.37
2023-01-27T15:57:42.353Z,89.86
2023-01-27T16:01:49.700Z,88.19
2023-01-27T16:05:57.507Z,88.31
2023-01-27T16:10:02.385Z,87.43
2023-01-27T16:14:39.890Z,89.89
2023-01-27T16:18:46.305Z,89.46
2023-01-27T16:22:53.563Z,88.27
2023-01-27T16:27:05.886Z,90.09
2023-01-27T16:31:16.224Z,90.37
2023-01-27T16:35:22.002Z,91.15
2023-01-27T16:39:30.904Z,92.69
2023-01-27T16:43:41.714Z,92.23
2023-01-27T16:47:48.783Z,92.62
2023-01-27T16:51:57.510Z,91.47
2023-01-27T16:56:03.036Z,91.99
2023-01-27T17:00:13.028Z,91.31
2023-01-27T17:04:20.728Z,91.11
2023-01-27T17:08:35.587Z,90.54
2023-01-27T17:12:43.666Z,92.51
2023-01-27T17:16:48.532Z,93.28
2023-01-27T17:20:52.436Z,93.49
2023-01-27T17:25:04.822Z,92.42
2023-01-27T17:29:08.601Z,93.34
2023-01-27T17:33:18.183Z,93.85
2023-01-27T17:37:25.939Z,94.77
2023-01-27T17:41:35.915Z,94.58
2023-01-27T17:45:40.578Z,95.03
2023-01-27T17:49:49.619Z,95.21
2023-01-27T17:54:05.411Z,95.35
2023-01-27T17:58:13.776Z,95.70
2023-01-27T18:02:26.981Z,95.00
2023-01-27T18:06:30.864Z,95.60
2023-01-27T18:10:39.500Z,95.80
2023-01-27T18:14:44.482Z,95.85
2023-01-27T18:18:49.824Z,95.48
2023-01-27T18:22:53.365Z,95.34
2023-01-27T18:26:56.973Z,95.32
2023-01-27T18:31:03.177Z,95.24
2023-01-27T18:35:24.258Z,94.74
2023-01-27T18:39:37.201Z,94.94
2023-01-27T18:43:41.503Z,95.22
2023-01-27T18:47:46.712Z,95.01
2023-01-27T18:51:50.772Z,94.29
2023-01-27T18:55:54.828Z,94.76
2023-01-27T18:59:59.533Z,95.50
2023-01-27T19:04:04.662Z,95.58
2023-01-27T19:08:09.107Z,95.49
2023-01-27T19:12:12.919Z,95.34
2023-01-27T19:16:18.782Z,93.65
2023-01-27T19:20:25.560Z,93.28
2023-01-27T19:24:29.184Z,94.36
2023-01-27T19:28:34.369Z,94.35
2023-01-27T19:32:38.405Z,93.34
2023-01-27T19:36:48.178Z,93.12
2023-01-27T19:40:51.949Z,93.42
2023-01-27T19:44:55.446Z,93.03
2023-01-27T19:48:58.941Z,93.20
2023-01-27T19:53:03.719Z,93.67
2023-01-27T19:57:07.503Z,93.81
2023-01-27T20:01:11.106Z,93.61
2023-01-27T20:05:15.327Z,93.44
2023-01-27T20:09:20.503Z,93.11
2023-01-27T20:13:24.377Z,93.24
2023-01-27T20:17:28.387Z,93.12
2023-01-27T20:21:39.224Z,93.23
2023-01-27T20:25:44.562Z,93.34
2023-01-27T20:29:47.970Z,93.20
2023-01-27T20:33:51.748Z,93.93
2023-01-27T20:37:55.750Z,94.55
2023-01-27T20:42:00.852Z,94.46
2023-01-27T20:46:06.411Z,93.58
2023-01-27T20:50:11.875Z,94.81
2023-01-27T20:54:15.306Z,95.62
2023-01-27T20:58:20.175Z,95.82
2023-01-27T21:02:23.661Z,96.15
2023-01-27T21:06:27.723Z,96.02
2023-01-27T21:10:31.340Z,95.49
2023-01-27T21:14:36.294Z,95.39
2023-01-27T21:18:40.298Z,94.67
2023-01-27T21:22:46.387Z,94.03
2023-01-27T21:26:52.230Z,94.12
2023-01-27T21:30:57.586Z,94.23
2023-01-27T21:35:01.851Z,93.69
2023-01-27T21:39:05.716Z,93.29
2023-01-27T21:43:28.407Z,94.34
2023-01-27T21:47:33.823Z,93.68
2023-01-27T21:51:40.724Z,93.16
2023-01-27T21:55:44.344Z,93.59
2023-01-27T21:59:47.961Z,93.80
2023-01-27T22:03:53.294Z,92.46
2023-01-27T22:07:57.054Z,93.49
2023-01-27T22:12:00.674Z,92.75
2023-01-27T22:16:07.809Z,93.63
2023-01-27T22:20:15.527Z,93.39
2023-01-27T22:24:19.013Z,93.58
2023-01-27T22:28:24.284Z,93.57
2023-01-27T22:32:27.958Z,93.53
2023-01-27T22:36:32.960Z,91.57
2023-01-27T22:40:36.702Z,92.86
2023-01-27T22:44:40.344Z,92.13
2023-01-27T22:48:44.408Z,92.65
2023-01-27T22:52:55.071Z,92.55
2023-01-27T22:57:01.075Z,93.59
2023-01-27T23:01:07.753Z,93.91
2023-01-27T23:05:11.899Z,92.42
2023-01-27T23:09:17.759Z,91.96
2023-01-27T23:13:24.180Z,92.07
2023-01-27T23:17:58.861Z,89.81
2023-01-27T23:22:01.109Z,92.66
2023-01-27T23:26:12.336Z,92.98
2023-01-27T23:30:17.069Z,93.54
2023-01-27T23:34:21.461Z,93.31
2023-01-27T23:38:36.059Z,93.44
2023-01-27T23:42:42.421Z,93.58
2023-01-27T23:46:48.823Z,92.93
2023-01-27T23:50:52.970Z,93.16
2023-01-27T23:54:57.587Z,93.68
2023-01-27T23:59:03.123Z,92.89
